sensor_id;sensor_type;location;lat;lon;timestamp;temperature;humidity
3548;DHT22;1788;49.400;11.092;2024-03-22T00:01:43;10.20;59.80
3548;DHT22;1788;49.400;11.092;2024-03-22T00:04:10;10.20;59.90
3548;DHT22;1788;49.400;11.092;2024-03-22T00:06:36;10.20;59.90
3548;DHT22;1788;49.400;11.092;2024-03-22T00:09:03;10.20;59.90
3548;DHT22;1788;49.400;11.092;2024-03-22T00:11:31;10.20;60.20
3548;DHT22;1788;49.400;11.092;2024-03-22T00:13:58;10.20;59.90
3548;DHT22;1788;49.400;11.092;2024-03-22T00:16:25;10.10;60.00
3548;DHT22;1788;49.400;11.092;2024-03-22T00:18:52;10.10;59.90
3548;DHT22;1788;49.400;11.092;2024-03-22T00:21:19;10.10;59.90
3548;DHT22;1788;49.400;11.092;2024-03-22T00:23:45;10.10;59.90
3548;DHT22;1788;49.400;11.092;2024-03-22T00:26:12;10.10;59.90
3548;DHT22;1788;49.400;11.092;2024-03-22T00:28:38;10.10;59.90
3548;DHT22;1788;49.400;11.092;2024-03-22T00:31:05;10.10;59.90
3548;DHT22;1788;49.400;11.092;2024-03-22T00:33:32;10.20;60.00
3548;DHT22;1788;49.400;11.092;2024-03-22T00:35:59;10.10;59.90
3548;DHT22;1788;49.400;11.092;2024-03-22T00:38:26;10.10;59.90
3548;DHT22;1788;49.400;11.092;2024-03-22T00:40:53;10.10;59.80
3548;DHT22;1788;49.400;11.092;2024-03-22T00:43:21;10.10;59.90
3548;DHT22;1788;49.400;11.092;2024-03-22T00:45:48;10.10;59.80
3548;DHT22;1788;49.400;11.092;2024-03-22T00:48:15;10.10;59.90
3548;DHT22;1788;49.400;11.092;2024-03-22T00:50:41;10.10;59.90
3548;DHT22;1788;49.400;11.092;2024-03-22T00:53:08;10.10;59.80
3548;DHT22;1788;49.400;11.092;2024-03-22T00:55:34;10.10;59.80
3548;DHT22;1788;49.400;11.092;2024-03-22T00:58:02;10.10;59.90
3548;DHT22;1788;49.400;11.092;2024-03-22T01:00:29;10.00;59.70
3548;DHT22;1788;49.400;11.092;2024-03-22T01:02:56;10.00;59.80
3548;DHT22;1788;49.400;11.092;2024-03-22T01:05:23;10.00;59.80
3548;DHT22;1788;49.400;11.092;2024-03-22T01:07:50;10.00;59.80
3548;DHT22;1788;49.400;11.092;2024-03-22T01:10:17;10.00;59.80
3548;DHT22;1788;49.400;11.092;2024-03-22T01:12:44;10.00;59.80
3548;DHT22;1788;49.400;11.092;2024-03-22T01:15:11;9.90;61.70
3548;DHT22;1788;49.400;11.092;2024-03-22T01:17:38;9.90;60.80
3548;DHT22;1788;49.400;11.092;2024-03-22T01:20:04;9.90;60.80
3548;DHT22;1788;49.400;11.092;2024-03-22T01:22:31;9.90;60.80
3548;DHT22;1788;49.400;11.092;2024-03-22T01:24:57;9.80;60.70
3548;DHT22;1788;49.400;11.092;2024-03-22T01:27:25;9.80;60.70
3548;DHT22;1788;49.400;11.092;2024-03-22T01:29:51;9.80;60.70
3548;DHT22;1788;49.400;11.092;2024-03-22T01:32:18;9.80;60.80
3548;DHT22;1788;49.400;11.092;2024-03-22T01:34:45;9.80;60.80
3548;DHT22;1788;49.400;11.092;2024-03-22T01:37:11;9.70;60.70
3548;DHT22;1788;49.400;11.092;2024-03-22T01:39:38;9.70;60.70
3548;DHT22;1788;49.400;11.092;2024-03-22T01:42:05;9.70;60.70
3548;DHT22;1788;49.400;11.092;2024-03-22T01:44:32;9.60;61.10
3548;DHT22;1788;49.400;11.092;2024-03-22T01:46:58;9.60;60.60
3548;DHT22;1788;49.400;11.092;2024-03-22T01:49:26;9.60;59.90
3548;DHT22;1788;49.400;11.092;2024-03-22T01:51:52;9.60;60.60
3548;DHT22;1788;49.400;11.092;2024-03-22T01:54:19;9.60;60.50
3548;DHT22;1788;49.400;11.092;2024-03-22T01:56:46;9.50;60.40
3548;DHT22;1788;49.400;11.092;2024-03-22T01:59:13;9.50;60.40
3548;DHT22;1788;49.400;11.092;2024-03-22T02:01:39;9.40;60.30
3548;DHT22;1788;49.400;11.092;2024-03-22T02:04:06;9.30;60.40
3548;DHT22;1788;49.400;11.092;2024-03-22T02:06:33;9.30;60.30
3548;DHT22;1788;49.400;11.092;2024-03-22T02:09:00;9.20;60.90
3548;DHT22;1788;49.400;11.092;2024-03-22T02:11:27;9.20;60.20
3548;DHT22;1788;49.400;11.092;2024-03-22T02:13:55;9.20;60.30
3548;DHT22;1788;49.400;11.092;2024-03-22T02:16:22;9.10;60.10
3548;DHT22;1788;49.400;11.092;2024-03-22T02:18:48;9.10;60.10
3548;DHT22;1788;49.400;11.092;2024-03-22T02:21:15;9.10;60.20
3548;DHT22;1788;49.400;11.092;2024-03-22T02:23:41;9.00;60.10
3548;DHT22;1788;49.400;11.092;2024-03-22T02:26:09;9.00;60.10
3548;DHT22;1788;49.400;11.092;2024-03-22T02:28:36;9.00;60.10
3548;DHT22;1788;49.400;11.092;2024-03-22T02:31:03;8.90;60.10
3548;DHT22;1788;49.400;11.092;2024-03-22T02:33:30;8.80;60.00
3548;DHT22;1788;49.400;11.092;2024-03-22T02:35:57;8.80;60.00
3548;DHT22;1788;49.400;11.092;2024-03-22T02:38:24;8.80;60.00
3548;DHT22;1788;49.400;11.092;2024-03-22T02:40:52;8.70;59.90
3548;DHT22;1788;49.400;11.092;2024-03-22T02:43:18;8.70;59.90
3548;DHT22;1788;49.400;11.092;2024-03-22T02:45:46;8.70;60.00
3548;DHT22;1788;49.400;11.092;2024-03-22T02:48:12;8.60;59.90
3548;DHT22;1788;49.400;11.092;2024-03-22T02:50:40;8.60;60.40
3548;DHT22;1788;49.400;11.092;2024-03-22T02:53:06;8.60;59.90
3548;DHT22;1788;49.400;11.092;2024-03-22T02:58:00;8.60;59.80
3548;DHT22;1788;49.400;11.092;2024-03-22T03:00:28;8.50;59.70
3548;DHT22;1788;49.400;11.092;2024-03-22T03:02:54;8.50;59.70
3548;DHT22;1788;49.400;11.092;2024-03-22T03:05:22;8.50;59.70
3548;DHT22;1788;49.400;11.092;2024-03-22T03:07:48;8.40;59.60
3548;DHT22;1788;49.400;11.092;2024-03-22T03:10:16;8.40;59.70
3548;DHT22;1788;49.400;11.092;2024-03-22T03:12:42;8.40;59.60
3548;DHT22;1788;49.400;11.092;2024-03-22T03:15:10;8.30;59.20
3548;DHT22;1788;49.400;11.092;2024-03-22T03:17:36;8.30;59.60
3548;DHT22;1788;49.400;11.092;2024-03-22T03:20:04;8.20;59.70
3548;DHT22;1788;49.400;11.092;2024-03-22T03:22:32;8.20;59.50
3548;DHT22;1788;49.400;11.092;2024-03-22T03:24:58;8.10;59.50
3548;DHT22;1788;49.400;11.092;2024-03-22T03:27:25;8.10;59.50
3548;DHT22;1788;49.400;11.092;2024-03-22T03:29:52;8.00;59.50
3548;DHT22;1788;49.400;11.092;2024-03-22T03:32:19;8.00;59.50
3548;DHT22;1788;49.400;11.092;2024-03-22T03:34:46;8.00;59.50
3548;DHT22;1788;49.400;11.092;2024-03-22T03:37:14;7.90;59.30
3548;DHT22;1788;49.400;11.092;2024-03-22T03:39:40;7.90;59.50
3548;DHT22;1788;49.400;11.092;2024-03-22T03:42:07;7.90;59.50
3548;DHT22;1788;49.400;11.092;2024-03-22T03:44:33;7.80;59.40
3548;DHT22;1788;49.400;11.092;2024-03-22T03:47:01;7.80;59.40
3548;DHT22;1788;49.400;11.092;2024-03-22T03:49:27;7.80;59.40
3548;DHT22;1788;49.400;11.092;2024-03-22T03:51:53;7.80;59.40
3548;DHT22;1788;49.400;11.092;2024-03-22T03:54:20;7.80;59.00
3548;DHT22;1788;49.400;11.092;2024-03-22T03:56:46;7.80;59.50
3548;DHT22;1788;49.400;11.092;2024-03-22T03:59:13;7.70;59.40
3548;DHT22;1788;49.400;11.092;2024-03-22T04:01:40;7.70;59.40
3548;DHT22;1788;49.400;11.092;2024-03-22T04:04:07;7.70;59.40
3548;DHT22;1788;49.400;11.092;2024-03-22T04:06:34;7.70;59.50
3548;DHT22;1788;49.400;11.092;2024-03-22T04:09:01;7.60;59.40
3548;DHT22;1788;49.400;11.092;2024-03-22T04:11:28;7.60;59.50
3548;DHT22;1788;49.400;11.092;2024-03-22T04:13:55;7.60;59.40
3548;DHT22;1788;49.400;11.092;2024-03-22T04:16:22;7.60;59.30
3548;DHT22;1788;49.400;11.092;2024-03-22T04:18:49;7.60;59.40
3548;DHT22;1788;49.400;11.092;2024-03-22T04:21:16;7.60;59.40
3548;DHT22;1788;49.400;11.092;2024-03-22T04:23:42;7.60;59.40
3548;DHT22;1788;49.400;11.092;2024-03-22T04:26:09;7.60;59.40
3548;DHT22;1788;49.400;11.092;2024-03-22T04:28:35;7.60;59.40
3548;DHT22;1788;49.400;11.092;2024-03-22T04:33:29;7.60;59.50
3548;DHT22;1788;49.400;11.092;2024-03-22T04:35:56;7.60;59.40
3548;DHT22;1788;49.400;11.092;2024-03-22T04:38:22;7.60;59.50
3548;DHT22;1788;49.400;11.092;2024-03-22T04:40:49;7.60;60.10
3548;DHT22;1788;49.400;11.092;2024-03-22T04:43:16;7.60;59.50
3548;DHT22;1788;49.400;11.092;2024-03-22T04:45:43;7.60;59.50
3548;DHT22;1788;49.400;11.092;2024-03-22T04:48:09;7.60;59.50
3548;DHT22;1788;49.400;11.092;2024-03-22T04:50:36;7.60;59.50
3548;DHT22;1788;49.400;11.092;2024-03-22T04:53:02;7.60;59.50
3548;DHT22;1788;49.400;11.092;2024-03-22T04:55:29;7.60;59.60
3548;DHT22;1788;49.400;11.092;2024-03-22T04:57:56;7.60;60.10
3548;DHT22;1788;49.400;11.092;2024-03-22T05:00:22;7.60;59.60
3548;DHT22;1788;49.400;11.092;2024-03-22T05:02:49;7.60;59.60
3548;DHT22;1788;49.400;11.092;2024-03-22T05:05:16;7.70;59.70
3548;DHT22;1788;49.400;11.092;2024-03-22T05:07:43;7.70;59.70
3548;DHT22;1788;49.400;11.092;2024-03-22T05:10:10;7.70;59.70
3548;DHT22;1788;49.400;11.092;2024-03-22T05:12:36;7.70;59.70
3548;DHT22;1788;49.400;11.092;2024-03-22T05:15:03;7.70;59.70
3548;DHT22;1788;49.400;11.092;2024-03-22T05:17:29;7.70;59.70
3548;DHT22;1788;49.400;11.092;2024-03-22T05:19:56;7.70;59.60
3548;DHT22;1788;49.400;11.092;2024-03-22T05:22:23;7.70;59.70
3548;DHT22;1788;49.400;11.092;2024-03-22T05:24:49;7.70;59.60
3548;DHT22;1788;49.400;11.092;2024-03-22T05:27:17;7.70;59.60
3548;DHT22;1788;49.400;11.092;2024-03-22T05:29:42;7.70;59.60
3548;DHT22;1788;49.400;11.092;2024-03-22T05:32:09;7.70;59.60
3548;DHT22;1788;49.400;11.092;2024-03-22T05:34:36;7.70;59.60
3548;DHT22;1788;49.400;11.092;2024-03-22T05:37:02;7.70;59.60
3548;DHT22;1788;49.400;11.092;2024-03-22T05:39:29;7.70;59.70
3548;DHT22;1788;49.400;11.092;2024-03-22T05:41:56;7.60;59.60
3548;DHT22;1788;49.400;11.092;2024-03-22T05:44:22;7.60;59.60
3548;DHT22;1788;49.400;11.092;2024-03-22T05:46:49;7.60;59.60
3548;DHT22;1788;49.400;11.092;2024-03-22T05:49:16;7.60;59.60
3548;DHT22;1788;49.400;11.092;2024-03-22T05:51:42;7.60;59.70
3548;DHT22;1788;49.400;11.092;2024-03-22T05:54:09;7.60;59.70
3548;DHT22;1788;49.400;11.092;2024-03-22T05:56:35;7.70;59.80
3548;DHT22;1788;49.400;11.092;2024-03-22T05:59:02;7.70;59.90
3548;DHT22;1788;49.400;11.092;2024-03-22T06:01:29;7.80;60.70
3548;DHT22;1788;49.400;11.092;2024-03-22T06:03:56;7.80;60.00
3548;DHT22;1788;49.400;11.092;2024-03-22T06:06:22;7.80;60.00
3548;DHT22;1788;49.400;11.092;2024-03-22T06:08:49;7.80;60.00
3548;DHT22;1788;49.400;11.092;2024-03-22T06:11:16;7.90;60.30
3548;DHT22;1788;49.400;11.092;2024-03-22T06:13:42;8.00;60.30
3548;DHT22;1788;49.400;11.092;2024-03-22T06:16:10;8.10;59.80
3548;DHT22;1788;49.400;11.092;2024-03-22T06:18:36;8.10;60.30
3548;DHT22;1788;49.400;11.092;2024-03-22T06:21:03;8.10;60.40
3548;DHT22;1788;49.400;11.092;2024-03-22T06:23:30;8.20;60.50
3548;DHT22;1788;49.400;11.092;2024-03-22T06:25:56;8.20;60.60
3548;DHT22;1788;49.400;11.092;2024-03-22T06:28:23;8.30;60.80
3548;DHT22;1788;49.400;11.092;2024-03-22T06:30:50;8.40;60.30
3548;DHT22;1788;49.400;11.092;2024-03-22T06:33:17;8.40;60.90
3548;DHT22;1788;49.400;11.092;2024-03-22T06:35:43;8.50;61.10
3548;DHT22;1788;49.400;11.092;2024-03-22T06:38:10;8.60;61.20
3548;DHT22;1788;49.400;11.092;2024-03-22T06:40:37;8.70;61.30
3548;DHT22;1788;49.400;11.092;2024-03-22T06:43:03;8.80;61.40
3548;DHT22;1788;49.400;11.092;2024-03-22T06:45:31;9.10;62.10
3548;DHT22;1788;49.400;11.092;2024-03-22T06:47:57;9.10;61.70
3548;DHT22;1788;49.400;11.092;2024-03-22T06:50:25;9.20;61.00
3548;DHT22;1788;49.400;11.092;2024-03-22T06:52:51;9.20;61.60
3548;DHT22;1788;49.400;11.092;2024-03-22T06:55:18;9.30;61.70
3548;DHT22;1788;49.400;11.092;2024-03-22T07:00:11;9.40;61.90
3548;DHT22;1788;49.400;11.092;2024-03-22T07:02:38;9.50;62.00
3548;DHT22;1788;49.400;11.092;2024-03-22T07:05:06;9.70;61.80
3548;DHT22;1788;49.400;11.092;2024-03-22T07:07:32;9.60;62.00
3548;DHT22;1788;49.400;11.092;2024-03-22T07:09:58;9.70;62.20
3548;DHT22;1788;49.400;11.092;2024-03-22T07:12:25;9.80;62.30
3548;DHT22;1788;49.400;11.092;2024-03-22T07:14:51;9.90;62.30
3548;DHT22;1788;49.400;11.092;2024-03-22T07:17:18;10.00;61.10
3548;DHT22;1788;49.400;11.092;2024-03-22T07:19:45;10.10;61.20
3548;DHT22;1788;49.400;11.092;2024-03-22T07:22:12;10.10;61.10
3548;DHT22;1788;49.400;11.092;2024-03-22T07:24:39;10.20;61.10
3548;DHT22;1788;49.400;11.092;2024-03-22T07:27:06;10.20;61.10
3548;DHT22;1788;49.400;11.092;2024-03-22T07:29:33;10.40;61.30
3548;DHT22;1788;49.400;11.092;2024-03-22T07:32:00;10.40;61.20
3548;DHT22;1788;49.400;11.092;2024-03-22T07:34:27;10.50;61.30
3548;DHT22;1788;49.400;11.092;2024-03-22T07:36:54;10.50;61.30
3548;DHT22;1788;49.400;11.092;2024-03-22T07:39:21;10.50;61.20
3548;DHT22;1788;49.400;11.092;2024-03-22T07:41:48;10.60;61.30
3548;DHT22;1788;49.400;11.092;2024-03-22T07:44:14;10.60;61.30
3548;DHT22;1788;49.400;11.092;2024-03-22T07:46:41;10.70;61.30
3548;DHT22;1788;49.400;11.092;2024-03-22T07:49:07;10.80;61.40
3548;DHT22;1788;49.400;11.092;2024-03-22T07:51:34;10.80;61.50
3548;DHT22;1788;49.400;11.092;2024-03-22T07:54:01;10.90;61.60
3548;DHT22;1788;49.400;11.092;2024-03-22T07:56:27;11.00;61.70
3548;DHT22;1788;49.400;11.092;2024-03-22T07:58:54;11.10;61.70
3548;DHT22;1788;49.400;11.092;2024-03-22T08:01:20;11.20;61.70
3548;DHT22;1788;49.400;11.092;2024-03-22T08:03:48;11.30;61.60
3548;DHT22;1788;49.400;11.092;2024-03-22T08:06:14;11.30;61.60
3548;DHT22;1788;49.400;11.092;2024-03-22T08:08:41;11.40;61.60
3548;DHT22;1788;49.400;11.092;2024-03-22T08:11:08;11.50;61.70
3548;DHT22;1788;49.400;11.092;2024-03-22T08:13:34;11.60;61.70
3548;DHT22;1788;49.400;11.092;2024-03-22T08:16:01;11.60;61.60
3548;DHT22;1788;49.400;11.092;2024-03-22T08:18:27;11.70;61.70
3548;DHT22;1788;49.400;11.092;2024-03-22T08:20:55;11.90;61.70
3548;DHT22;1788;49.400;11.092;2024-03-22T08:23:21;11.90;61.70
3548;DHT22;1788;49.400;11.092;2024-03-22T08:25:48;12.00;61.80
3548;DHT22;1788;49.400;11.092;2024-03-22T08:28:15;12.10;61.90
3548;DHT22;1788;49.400;11.092;2024-03-22T08:30:41;12.20;61.90
3548;DHT22;1788;49.400;11.092;2024-03-22T08:33:08;12.30;61.70
3548;DHT22;1788;49.400;11.092;2024-03-22T08:35:35;12.50;61.60
3548;DHT22;1788;49.400;11.092;2024-03-22T08:38:02;12.50;61.60
3548;DHT22;1788;49.400;11.092;2024-03-22T08:40:29;12.60;61.50
3548;DHT22;1788;49.400;11.092;2024-03-22T08:42:56;12.60;61.50
3548;DHT22;1788;49.400;11.092;2024-03-22T08:45:23;12.80;61.80
3548;DHT22;1788;49.400;11.092;2024-03-22T08:47:50;12.80;61.70
3548;DHT22;1788;49.400;11.092;2024-03-22T08:50:17;13.00;61.60
3548;DHT22;1788;49.400;11.092;2024-03-22T08:52:44;13.00;61.60
3548;DHT22;1788;49.400;11.092;2024-03-22T08:55:11;13.10;61.40
3548;DHT22;1788;49.400;11.092;2024-03-22T08:57:38;13.10;61.40
3548;DHT22;1788;49.400;11.092;2024-03-22T09:00:05;13.30;61.70
3548;DHT22;1788;49.400;11.092;2024-03-22T09:02:31;13.40;61.60
3548;DHT22;1788;49.400;11.092;2024-03-22T09:04:58;13.60;61.60
3548;DHT22;1788;49.400;11.092;2024-03-22T09:07:24;13.80;61.60
3548;DHT22;1788;49.400;11.092;2024-03-22T09:09:52;14.30;61.20
3548;DHT22;1788;49.400;11.092;2024-03-22T09:12:19;14.20;61.00
3548;DHT22;1788;49.400;11.092;2024-03-22T09:14:46;14.80;60.70
3548;DHT22;1788;49.400;11.092;2024-03-22T09:17:12;14.80;60.60
3548;DHT22;1788;49.400;11.092;2024-03-22T09:19:40;15.20;60.10
3548;DHT22;1788;49.400;11.092;2024-03-22T09:22:06;15.20;60.00
3548;DHT22;1788;49.400;11.092;2024-03-22T09:24:33;15.40;59.70
3548;DHT22;1788;49.400;11.092;2024-03-22T09:27:00;15.60;59.50
3548;DHT22;1788;49.400;11.092;2024-03-22T09:29:26;15.80;59.20
3548;DHT22;1788;49.400;11.092;2024-03-22T09:31:53;15.90;58.80
3548;DHT22;1788;49.400;11.092;2024-03-22T09:34:19;16.00;58.50
3548;DHT22;1788;49.400;11.092;2024-03-22T09:36:46;16.00;58.20
3548;DHT22;1788;49.400;11.092;2024-03-22T09:39:13;16.00;58.00
3548;DHT22;1788;49.400;11.092;2024-03-22T09:41:42;16.10;57.90
3548;DHT22;1788;49.400;11.092;2024-03-22T09:44:06;16.20;57.80
3548;DHT22;1788;49.400;11.092;2024-03-22T09:46:33;16.50;57.80
3548;DHT22;1788;49.400;11.092;2024-03-22T09:49:00;16.50;57.80
3548;DHT22;1788;49.400;11.092;2024-03-22T09:51:27;16.80;57.40
3548;DHT22;1788;49.400;11.092;2024-03-22T09:53:54;16.80;57.40
3548;DHT22;1788;49.400;11.092;2024-03-22T09:56:21;17.20;56.90
3548;DHT22;1788;49.400;11.092;2024-03-22T09:58:48;17.10;56.80
3548;DHT22;1788;49.400;11.092;2024-03-22T10:01:15;17.50;56.30
3548;DHT22;1788;49.400;11.092;2024-03-22T10:03:42;17.40;56.30
3548;DHT22;1788;49.400;11.092;2024-03-22T10:06:09;17.70;55.80
3548;DHT22;1788;49.400;11.092;2024-03-22T10:08:36;17.70;55.80
3548;DHT22;1788;49.400;11.092;2024-03-22T10:11:02;17.90;55.60
3548;DHT22;1788;49.400;11.092;2024-03-22T10:13:29;18.10;55.00
3548;DHT22;1788;49.400;11.092;2024-03-22T10:15:56;18.20;54.70
3548;DHT22;1788;49.400;11.092;2024-03-22T10:18:22;18.30;54.20
3548;DHT22;1788;49.400;11.092;2024-03-22T10:23:16;18.60;53.70
3548;DHT22;1788;49.400;11.092;2024-03-22T10:25:44;18.80;52.90
3548;DHT22;1788;49.400;11.092;2024-03-22T10:28:10;18.80;52.80
3548;DHT22;1788;49.400;11.092;2024-03-22T10:30:38;19.00;52.60
3548;DHT22;1788;49.400;11.092;2024-03-22T10:33:04;18.90;52.10
3548;DHT22;1788;49.400;11.092;2024-03-22T10:35:31;19.00;51.90
3548;DHT22;1788;49.400;11.092;2024-03-22T10:37:57;18.90;51.60
3548;DHT22;1788;49.400;11.092;2024-03-22T10:40:24;19.00;51.50
3548;DHT22;1788;49.400;11.092;2024-03-22T10:42:51;19.10;51.20
3548;DHT22;1788;49.400;11.092;2024-03-22T10:45:17;19.20;51.10
3548;DHT22;1788;49.400;11.092;2024-03-22T10:47:44;19.30;50.80
3548;DHT22;1788;49.400;11.092;2024-03-22T10:50:11;19.40;50.60
3548;DHT22;1788;49.400;11.092;2024-03-22T10:52:38;19.50;50.30
3548;DHT22;1788;49.400;11.092;2024-03-22T10:55:04;19.60;50.00
3548;DHT22;1788;49.400;11.092;2024-03-22T10:57:31;19.70;49.90
3548;DHT22;1788;49.400;11.092;2024-03-22T10:59:58;19.80;49.80
3548;DHT22;1788;49.400;11.092;2024-03-22T11:02:27;20.20;49.70
3548;DHT22;1788;49.400;11.092;2024-03-22T11:07:20;20.30;49.00
3548;DHT22;1788;49.400;11.092;2024-03-22T11:09:51;20.30;49.00
3548;DHT22;1788;49.400;11.092;2024-03-22T11:12:12;20.40;48.50
3548;DHT22;1788;49.400;11.092;2024-03-22T11:14:39;20.30;48.00
3548;DHT22;1788;49.400;11.092;2024-03-22T11:17:06;20.30;47.60
3548;DHT22;1788;49.400;11.092;2024-03-22T11:19:33;20.20;47.00
3548;DHT22;1788;49.400;11.092;2024-03-22T11:22:00;20.20;47.00
3548;DHT22;1788;49.400;11.092;2024-03-22T11:24:27;20.10;46.60
3548;DHT22;1788;49.400;11.092;2024-03-22T11:26:54;20.10;46.60
3548;DHT22;1788;49.400;11.092;2024-03-22T11:29:21;20.10;46.30
3548;DHT22;1788;49.400;11.092;2024-03-22T11:31:48;20.10;46.30
3548;DHT22;1788;49.400;11.092;2024-03-22T11:34:14;20.10;46.10
3548;DHT22;1788;49.400;11.092;2024-03-22T11:36:41;20.30;46.00
3548;DHT22;1788;49.400;11.092;2024-03-22T11:39:08;20.40;45.60
3548;DHT22;1788;49.400;11.092;2024-03-22T11:41:34;20.60;45.40
3548;DHT22;1788;49.400;11.092;2024-03-22T11:44:01;20.60;45.00
3548;DHT22;1788;49.400;11.092;2024-03-22T11:46:27;20.70;44.70
3548;DHT22;1788;49.400;11.092;2024-03-22T11:48:54;20.80;44.50
3548;DHT22;1788;49.400;11.092;2024-03-22T11:51:22;21.10;44.80
3548;DHT22;1788;49.400;11.092;2024-03-22T11:53:49;21.10;44.10
3548;DHT22;1788;49.400;11.092;2024-03-22T11:56:17;21.20;43.90
3548;DHT22;1788;49.400;11.092;2024-03-22T11:58:41;21.20;43.70
3548;DHT22;1788;49.400;11.092;2024-03-22T12:01:08;21.30;43.60
3548;DHT22;1788;49.400;11.092;2024-03-22T12:03:35;21.40;43.50
3548;DHT22;1788;49.400;11.092;2024-03-22T12:06:03;21.60;43.40
3548;DHT22;1788;49.400;11.092;2024-03-22T12:08:29;21.60;43.40
3548;DHT22;1788;49.400;11.092;2024-03-22T12:10:55;21.80;43.20
3548;DHT22;1788;49.400;11.092;2024-03-22T12:13:22;22.00;43.10
3548;DHT22;1788;49.400;11.092;2024-03-22T12:15:48;22.30;42.90
3548;DHT22;1788;49.400;11.092;2024-03-22T12:18:16;22.50;42.30
3548;DHT22;1788;49.400;11.092;2024-03-22T12:20:43;22.50;42.30
3548;DHT22;1788;49.400;11.092;2024-03-22T12:23:10;22.60;42.20
3548;DHT22;1788;49.400;11.092;2024-03-22T12:25:36;22.70;42.10
3548;DHT22;1788;49.400;11.092;2024-03-22T12:28:03;22.70;42.00
3548;DHT22;1788;49.400;11.092;2024-03-22T12:30:29;22.60;41.80
3548;DHT22;1788;49.400;11.092;2024-03-22T12:32:57;22.70;41.70
3548;DHT22;1788;49.400;11.092;2024-03-22T12:35:23;22.90;41.40
3548;DHT22;1788;49.400;11.092;2024-03-22T12:37:50;23.80;40.90
3548;DHT22;1788;49.400;11.092;2024-03-22T12:40:17;23.80;40.80
3548;DHT22;1788;49.400;11.092;2024-03-22T12:42:43;24.60;40.20
3548;DHT22;1788;49.400;11.092;2024-03-22T12:45:10;25.20;39.40
3548;DHT22;1788;49.400;11.092;2024-03-22T12:47:37;25.30;38.70
3548;DHT22;1788;49.400;11.092;2024-03-22T12:50:06;25.30;38.70
3548;DHT22;1788;49.400;11.092;2024-03-22T12:52:32;25.40;38.70
3548;DHT22;1788;49.400;11.092;2024-03-22T12:55:00;25.40;38.00
3548;DHT22;1788;49.400;11.092;2024-03-22T12:57:26;25.40;38.00
3548;DHT22;1788;49.400;11.092;2024-03-22T12:59:54;25.60;38.50
3548;DHT22;1788;49.400;11.092;2024-03-22T13:02:21;25.50;37.80
3548;DHT22;1788;49.400;11.092;2024-03-22T13:04:47;25.60;37.50
3548;DHT22;1788;49.400;11.092;2024-03-22T13:07:15;25.50;37.30
3548;DHT22;1788;49.400;11.092;2024-03-22T13:09:42;24.70;37.70
3548;DHT22;1788;49.400;11.092;2024-03-22T13:12:09;24.60;37.60
3548;DHT22;1788;49.400;11.092;2024-03-22T13:14:36;23.80;38.60
3548;DHT22;1788;49.400;11.092;2024-03-22T13:17:03;23.80;38.00
3548;DHT22;1788;49.400;11.092;2024-03-22T13:19:31;22.90;37.90
3548;DHT22;1788;49.400;11.092;2024-03-22T13:21:57;22.90;38.20
3548;DHT22;1788;49.400;11.092;2024-03-22T13:24:24;22.50;38.90
3548;DHT22;1788;49.400;11.092;2024-03-22T13:26:51;22.00;38.60
3548;DHT22;1788;49.400;11.092;2024-03-22T13:29:18;22.00;38.60
3548;DHT22;1788;49.400;11.092;2024-03-22T13:31:44;21.90;38.60
3548;DHT22;1788;49.400;11.092;2024-03-22T13:34:11;22.00;38.50
3548;DHT22;1788;49.400;11.092;2024-03-22T13:36:38;22.20;38.40
3548;DHT22;1788;49.400;11.092;2024-03-22T13:39:05;22.80;38.10
3548;DHT22;1788;49.400;11.092;2024-03-22T13:41:32;22.80;38.10
3548;DHT22;1788;49.400;11.092;2024-03-22T13:44:00;23.40;37.60
3548;DHT22;1788;49.400;11.092;2024-03-22T13:46:26;23.40;37.60
3548;DHT22;1788;49.400;11.092;2024-03-22T13:48:53;23.40;37.50
3548;DHT22;1788;49.400;11.092;2024-03-22T13:51:20;23.40;37.50
3548;DHT22;1788;49.400;11.092;2024-03-22T13:53:46;23.30;37.90
3548;DHT22;1788;49.400;11.092;2024-03-22T13:56:14;23.20;37.60
3548;DHT22;1788;49.400;11.092;2024-03-22T13:58:42;23.20;37.60
3548;DHT22;1788;49.400;11.092;2024-03-22T14:01:08;23.00;37.60
3548;DHT22;1788;49.400;11.092;2024-03-22T14:03:35;22.90;37.60
3548;DHT22;1788;49.400;11.092;2024-03-22T14:06:02;22.80;37.60
3548;DHT22;1788;49.400;11.092;2024-03-22T14:08:29;22.90;37.70
3548;DHT22;1788;49.400;11.092;2024-03-22T14:10:55;23.10;37.70
3548;DHT22;1788;49.400;11.092;2024-03-22T14:13:22;23.70;37.40
3548;DHT22;1788;49.400;11.092;2024-03-22T14:15:48;24.20;37.00
3548;DHT22;1788;49.400;11.092;2024-03-22T14:18:16;24.40;36.50
3548;DHT22;1788;49.400;11.092;2024-03-22T14:20:42;24.40;36.50
3548;DHT22;1788;49.400;11.092;2024-03-22T14:23:10;24.10;37.40
3548;DHT22;1788;49.400;11.092;2024-03-22T14:25:36;24.00;36.70
3548;DHT22;1788;49.400;11.092;2024-03-22T14:28:03;23.80;37.00
3548;DHT22;1788;49.400;11.092;2024-03-22T14:30:30;23.70;37.10
3548;DHT22;1788;49.400;11.092;2024-03-22T14:32:56;23.50;37.00
3548;DHT22;1788;49.400;11.092;2024-03-22T14:35:23;23.40;37.40
3548;DHT22;1788;49.400;11.092;2024-03-22T14:37:50;22.80;37.30
3548;DHT22;1788;49.400;11.092;2024-03-22T14:40:17;22.80;37.30
3548;DHT22;1788;49.400;11.092;2024-03-22T14:42:44;22.40;37.50
3548;DHT22;1788;49.400;11.092;2024-03-22T14:45:11;22.40;37.40
3548;DHT22;1788;49.400;11.092;2024-03-22T14:47:38;22.20;37.50
3548;DHT22;1788;49.400;11.092;2024-03-22T14:50:04;22.00;37.70
3548;DHT22;1788;49.400;11.092;2024-03-22T14:52:31;21.80;37.80
3548;DHT22;1788;49.400;11.092;2024-03-22T14:54:58;21.50;37.90
3548;DHT22;1788;49.400;11.092;2024-03-22T14:57:25;21.50;37.90
3548;DHT22;1788;49.400;11.092;2024-03-22T14:59:52;21.20;38.00
3548;DHT22;1788;49.400;11.092;2024-03-22T15:02:19;21.20;38.00
3548;DHT22;1788;49.400;11.092;2024-03-22T15:04:45;21.10;38.00
3548;DHT22;1788;49.400;11.092;2024-03-22T15:07:12;20.90;38.10
3548;DHT22;1788;49.400;11.092;2024-03-22T15:09:39;20.80;38.30
3548;DHT22;1788;49.400;11.092;2024-03-22T15:12:05;20.70;38.30
3548;DHT22;1788;49.400;11.092;2024-03-22T15:14:32;20.60;38.50
3548;DHT22;1788;49.400;11.092;2024-03-22T15:16:58;20.50;38.50
3548;DHT22;1788;49.400;11.092;2024-03-22T15:19:25;20.40;38.40
3548;DHT22;1788;49.400;11.092;2024-03-22T15:21:52;20.30;38.30
3548;DHT22;1788;49.400;11.092;2024-03-22T15:24:18;20.20;38.30
3548;DHT22;1788;49.400;11.092;2024-03-22T15:26:45;20.20;38.30
3548;DHT22;1788;49.400;11.092;2024-03-22T15:29:12;20.20;38.40
3548;DHT22;1788;49.400;11.092;2024-03-22T15:31:38;20.10;38.50
3548;DHT22;1788;49.400;11.092;2024-03-22T15:34:05;20.10;38.70
3548;DHT22;1788;49.400;11.092;2024-03-22T15:36:32;20.10;38.70
3548;DHT22;1788;49.400;11.092;2024-03-22T15:38:59;20.10;38.70
3548;DHT22;1788;49.400;11.092;2024-03-22T15:41:26;20.00;38.70
3548;DHT22;1788;49.400;11.092;2024-03-22T15:43:53;20.00;38.70
3548;DHT22;1788;49.400;11.092;2024-03-22T15:46:20;20.00;38.80
3548;DHT22;1788;49.400;11.092;2024-03-22T15:48:47;19.90;39.20
3548;DHT22;1788;49.400;11.092;2024-03-22T15:51:14;19.90;39.20
3548;DHT22;1788;49.400;11.092;2024-03-22T15:53:40;19.90;39.40
3548;DHT22;1788;49.400;11.092;2024-03-22T15:56:07;19.90;39.70
3548;DHT22;1788;49.400;11.092;2024-03-22T15:58:34;19.90;39.80
3548;DHT22;1788;49.400;11.092;2024-03-22T16:01:00;19.90;39.70